sensor_id;sensor_type;location;lat;lon;timestamp;pressure;altitude;pressure_sealevel;temperature
11849;BMP180;5983;49.966;8.052;2022-09-27T00:01:22;98599.00;;;11.40
11849;BMP180;5983;49.966;8.052;2022-09-27T00:03:52;98590.00;;;11.40
11849;BMP180;5983;49.966;8.052;2022-09-27T00:06:24;98597.00;;;11.40
11849;BMP180;5983;49.966;8.052;2022-09-27T00:08:51;98598.00;;;11.40
11849;BMP180;5983;49.966;8.052;2022-09-27T00:11:25;98592.00;;;11.40
11849;BMP180;5983;49.966;8.052;2022-09-27T00:13:53;98603.00;;;11.40
11849;BMP180;5983;49.966;8.052;2022-09-27T00:16:21;98593.00;;;11.40
11849;BMP180;5983;49.966;8.052;2022-09-27T00:18:49;98589.00;;;11.40
11849;BMP180;5983;49.966;8.052;2022-09-27T00:21:16;98591.00;;;11.40
11849;BMP180;5983;49.966;8.052;2022-09-27T00:23:43;98596.00;;;11.50
11849;BMP180;5983;49.966;8.052;2022-09-27T00:26:12;98590.00;;;11.40
11849;BMP180;5983;49.966;8.052;2022-09-27T00:28:39;98590.00;;;11.40
11849;BMP180;5983;49.966;8.052;2022-09-27T00:31:18;98594.00;;;11.40
11849;BMP180;5983;49.966;8.052;2022-09-27T00:33:46;98592.00;;;11.40
11849;BMP180;5983;49.966;8.052;2022-09-27T00:36:15;98581.00;;;11.50
11849;BMP180;5983;49.966;8.052;2022-09-27T00:38:43;98589.00;;;11.50
11849;BMP180;5983;49.966;8.052;2022-09-27T00:41:15;98585.00;;;11.50
11849;BMP180;5983;49.966;8.052;2022-09-27T00:43:47;98584.00;;;11.50
11849;BMP180;5983;49.966;8.052;2022-09-27T00:46:24;98583.00;;;11.50
11849;BMP180;5983;49.966;8.052;2022-09-27T00:49:03;98590.00;;;11.50
11849;BMP180;5983;49.966;8.052;2022-09-27T00:51:35;98583.00;;;11.50
11849;BMP180;5983;49.966;8.052;2022-09-27T00:54:06;98588.00;;;11.50
11849;BMP180;5983;49.966;8.052;2022-09-27T00:56:36;98587.00;;;11.50
11849;BMP180;5983;49.966;8.052;2022-09-27T00:59:10;98588.00;;;11.50
11849;BMP180;5983;49.966;8.052;2022-09-27T01:01:40;98585.00;;;11.50
11849;BMP180;5983;49.966;8.052;2022-09-27T01:04:10;98583.00;;;11.40
11849;BMP180;5983;49.966;8.052;2022-09-27T01:06:39;98584.00;;;11.50
11849;BMP180;5983;49.966;8.052;2022-09-27T01:09:09;98588.00;;;11.50
11849;BMP180;5983;49.966;8.052;2022-09-27T01:11:42;98581.00;;;11.50
11849;BMP180;5983;49.966;8.052;2022-09-27T01:14:30;98586.00;;;11.50
11849;BMP180;5983;49.966;8.052;2022-09-27T01:17:13;98580.00;;;11.50
11849;BMP180;5983;49.966;8.052;2022-09-27T01:20:24;98588.00;;;11.50
11849;BMP180;5983;49.966;8.052;2022-09-27T01:26:11;98580.00;;;11.50
11849;BMP180;5983;49.966;8.052;2022-09-27T01:28:55;98575.00;;;11.40
11849;BMP180;5983;49.966;8.052;2022-09-27T01:31:35;98586.00;;;11.40
11849;BMP180;5983;49.966;8.052;2022-09-27T01:34:12;98583.00;;;11.40
11849;BMP180;5983;49.966;8.052;2022-09-27T01:36:49;98577.00;;;11.40
11849;BMP180;5983;49.966;8.052;2022-09-27T01:39:32;98578.00;;;11.40
11849;BMP180;5983;49.966;8.052;2022-09-27T01:42:09;98571.00;;;11.40
11849;BMP180;5983;49.966;8.052;2022-09-27T01:44:44;98580.00;;;11.40
11849;BMP180;5983;49.966;8.052;2022-09-27T01:47:19;98580.00;;;11.40
11849;BMP180;5983;49.966;8.052;2022-09-27T01:49:54;98575.00;;;11.40
11849;BMP180;5983;49.966;8.052;2022-09-27T01:52:28;98577.00;;;11.40
11849;BMP180;5983;49.966;8.052;2022-09-27T01:55:00;98583.00;;;11.40
11849;BMP180;5983;49.966;8.052;2022-09-27T01:57:36;98571.00;;;11.40
11849;BMP180;5983;49.966;8.052;2022-09-27T02:00:08;98581.00;;;11.40
11849;BMP180;5983;49.966;8.052;2022-09-27T02:02:42;98586.00;;;11.40
11849;BMP180;5983;49.966;8.052;2022-09-27T02:05:13;98582.00;;;11.40
11849;BMP180;5983;49.966;8.052;2022-09-27T02:07:47;98587.00;;;11.40
11849;BMP180;5983;49.966;8.052;2022-09-27T02:10:22;98574.00;;;11.40
11849;BMP180;5983;49.966;8.052;2022-09-27T02:12:57;98583.00;;;11.40
11849;BMP180;5983;49.966;8.052;2022-09-27T02:15:33;98575.00;;;11.40
11849;BMP180;5983;49.966;8.052;2022-09-27T02:18:15;98583.00;;;11.40
11849;BMP180;5983;49.966;8.052;2022-09-27T02:20:49;98581.00;;;11.40
11849;BMP180;5983;49.966;8.052;2022-09-27T02:23:23;98591.00;;;11.40
11849;BMP180;5983;49.966;8.052;2022-09-27T02:25:56;98585.00;;;11.30
11849;BMP180;5983;49.966;8.052;2022-09-27T02:28:30;98586.00;;;11.30
11849;BMP180;5983;49.966;8.052;2022-09-27T02:30:59;98599.00;;;11.30
11849;BMP180;5983;49.966;8.052;2022-09-27T02:33:33;98599.00;;;11.30
11849;BMP180;5983;49.966;8.052;2022-09-27T02:36:01;98611.00;;;11.30
11849;BMP180;5983;49.966;8.052;2022-09-27T02:38:29;98619.00;;;11.30
11849;BMP180;5983;49.966;8.052;2022-09-27T02:40:56;98617.00;;;11.30
11849;BMP180;5983;49.966;8.052;2022-09-27T02:43:28;98621.00;;;11.30
11849;BMP180;5983;49.966;8.052;2022-09-27T02:46:14;98635.00;;;11.30
11849;BMP180;5983;49.966;8.052;2022-09-27T02:48:55;98639.00;;;11.30
11849;BMP180;5983;49.966;8.052;2022-09-27T02:51:41;98642.00;;;11.30
11849;BMP180;5983;49.966;8.052;2022-09-27T02:54:22;98653.00;;;11.30
11849;BMP180;5983;49.966;8.052;2022-09-27T02:57:08;98655.00;;;11.30
11849;BMP180;5983;49.966;8.052;2022-09-27T02:59:48;98649.00;;;11.20
11849;BMP180;5983;49.966;8.052;2022-09-27T03:02:30;98667.00;;;11.30
11849;BMP180;5983;49.966;8.052;2022-09-27T03:05:04;98668.00;;;11.20
11849;BMP180;5983;49.966;8.052;2022-09-27T03:07:33;98674.00;;;11.20
11849;BMP180;5983;49.966;8.052;2022-09-27T03:10:04;98667.00;;;11.20
11849;BMP180;5983;49.966;8.052;2022-09-27T03:12:32;98684.00;;;11.20
11849;BMP180;5983;49.966;8.052;2022-09-27T03:15:00;98678.00;;;11.20
11849;BMP180;5983;49.966;8.052;2022-09-27T03:17:27;98683.00;;;11.20
11849;BMP180;5983;49.966;8.052;2022-09-27T03:19:54;98685.00;;;11.20
11849;BMP180;5983;49.966;8.052;2022-09-27T03:22:22;98687.00;;;11.10
11849;BMP180;5983;49.966;8.052;2022-09-27T03:24:49;98685.00;;;11.10
11849;BMP180;5983;49.966;8.052;2022-09-27T03:27:16;98689.00;;;11.00
11849;BMP180;5983;49.966;8.052;2022-09-27T03:29:43;98699.00;;;11.00
11849;BMP180;5983;49.966;8.052;2022-09-27T03:32:09;98707.00;;;11.00
11849;BMP180;5983;49.966;8.052;2022-09-27T03:34:36;98701.00;;;10.90
11849;BMP180;5983;49.966;8.052;2022-09-27T03:37:03;98690.00;;;10.90
11849;BMP180;5983;49.966;8.052;2022-09-27T03:39:31;98694.00;;;10.90
11849;BMP180;5983;49.966;8.052;2022-09-27T03:41:59;98693.00;;;10.90
11849;BMP180;5983;49.966;8.052;2022-09-27T03:44:25;98696.00;;;10.90
11849;BMP180;5983;49.966;8.052;2022-09-27T03:46:52;98692.00;;;10.80
11849;BMP180;5983;49.966;8.052;2022-09-27T03:49:19;98690.00;;;10.80
11849;BMP180;5983;49.966;8.052;2022-09-27T03:51:46;98691.00;;;10.80
11849;BMP180;5983;49.966;8.052;2022-09-27T03:54:13;98685.00;;;10.70
11849;BMP180;5983;49.966;8.052;2022-09-27T03:56:42;98690.00;;;10.70
11849;BMP180;5983;49.966;8.052;2022-09-27T03:59:09;98688.00;;;10.70
11849;BMP180;5983;49.966;8.052;2022-09-27T04:01:36;98695.00;;;10.60
11849;BMP180;5983;49.966;8.052;2022-09-27T04:04:03;98695.00;;;10.60
11849;BMP180;5983;49.966;8.052;2022-09-27T04:06:30;98692.00;;;10.60
11849;BMP180;5983;49.966;8.052;2022-09-27T04:09:00;98692.00;;;10.60
11849;BMP180;5983;49.966;8.052;2022-09-27T04:11:27;98701.00;;;10.60
11849;BMP180;5983;49.966;8.052;2022-09-27T04:13:55;98699.00;;;10.60
11849;BMP180;5983;49.966;8.052;2022-09-27T04:16:22;98691.00;;;10.50
11849;BMP180;5983;49.966;8.052;2022-09-27T04:18:50;98694.00;;;10.50
11849;BMP180;5983;49.966;8.052;2022-09-27T04:21:17;98699.00;;;10.50
11849;BMP180;5983;49.966;8.052;2022-09-27T04:23:45;98700.00;;;10.50
11849;BMP180;5983;49.966;8.052;2022-09-27T04:26:12;98703.00;;;10.50
11849;BMP180;5983;49.966;8.052;2022-09-27T04:28:39;98706.00;;;10.50
11849;BMP180;5983;49.966;8.052;2022-09-27T04:31:07;98699.00;;;10.50
11849;BMP180;5983;49.966;8.052;2022-09-27T04:33:34;98709.00;;;10.50
11849;BMP180;5983;49.966;8.052;2022-09-27T04:36:01;98712.00;;;10.50
11849;BMP180;5983;49.966;8.052;2022-09-27T04:38:45;98711.00;;;10.50
11849;BMP180;5983;49.966;8.052;2022-09-27T04:41:12;98710.00;;;10.50
11849;BMP180;5983;49.966;8.052;2022-09-27T04:43:40;98707.00;;;10.50
11849;BMP180;5983;49.966;8.052;2022-09-27T04:46:08;98704.00;;;10.50
11849;BMP180;5983;49.966;8.052;2022-09-27T04:48:35;98706.00;;;10.40
11849;BMP180;5983;49.966;8.052;2022-09-27T04:51:02;98716.00;;;10.40
11849;BMP180;5983;49.966;8.052;2022-09-27T04:53:30;98709.00;;;10.40
11849;BMP180;5983;49.966;8.052;2022-09-27T04:55:57;98711.00;;;10.40
11849;BMP180;5983;49.966;8.052;2022-09-27T04:58:26;98719.00;;;10.40
11849;BMP180;5983;49.966;8.052;2022-09-27T05:00:53;98719.00;;;10.40
11849;BMP180;5983;49.966;8.052;2022-09-27T05:03:21;98716.00;;;10.30
11849;BMP180;5983;49.966;8.052;2022-09-27T05:05:48;98728.00;;;10.40
11849;BMP180;5983;49.966;8.052;2022-09-27T05:08:15;98720.00;;;10.30
11849;BMP180;5983;49.966;8.052;2022-09-27T05:10:42;98720.00;;;10.30
11849;BMP180;5983;49.966;8.052;2022-09-27T05:13:09;98721.00;;;10.30
11849;BMP180;5983;49.966;8.052;2022-09-27T05:15:36;98720.00;;;10.40
11849;BMP180;5983;49.966;8.052;2022-09-27T05:18:04;98725.00;;;10.40
11849;BMP180;5983;49.966;8.052;2022-09-27T05:20:34;98734.00;;;10.40
11849;BMP180;5983;49.966;8.052;2022-09-27T05:23:01;98730.00;;;10.40
11849;BMP180;5983;49.966;8.052;2022-09-27T05:25:29;98741.00;;;10.40
11849;BMP180;5983;49.966;8.052;2022-09-27T05:27:56;98745.00;;;10.40
11849;BMP180;5983;49.966;8.052;2022-09-27T05:30:23;98738.00;;;10.40
11849;BMP180;5983;49.966;8.052;2022-09-27T05:32:50;98751.00;;;10.50
11849;BMP180;5983;49.966;8.052;2022-09-27T05:35:19;98749.00;;;10.40
11849;BMP180;5983;49.966;8.052;2022-09-27T05:37:52;98753.00;;;10.50
11849;BMP180;5983;49.966;8.052;2022-09-27T05:40:20;98757.00;;;10.50
11849;BMP180;5983;49.966;8.052;2022-09-27T05:42:50;98766.00;;;10.50
11849;BMP180;5983;49.966;8.052;2022-09-27T05:45:18;98764.00;;;10.50
11849;BMP180;5983;49.966;8.052;2022-09-27T05:47:53;98760.00;;;10.50
11849;BMP180;5983;49.966;8.052;2022-09-27T05:50:20;98756.00;;;10.50
11849;BMP180;5983;49.966;8.052;2022-09-27T05:52:47;98769.00;;;10.60
11849;BMP180;5983;49.966;8.052;2022-09-27T05:55:16;98779.00;;;10.60
11849;BMP180;5983;49.966;8.052;2022-09-27T05:57:55;98785.00;;;10.60
11849;BMP180;5983;49.966;8.052;2022-09-27T06:00:22;98796.00;;;10.70
11849;BMP180;5983;49.966;8.052;2022-09-27T06:02:54;98786.00;;;10.70
11849;BMP180;5983;49.966;8.052;2022-09-27T06:05:22;98791.00;;;10.80
11849;BMP180;5983;49.966;8.052;2022-09-27T06:07:50;98794.00;;;10.80
11849;BMP180;5983;49.966;8.052;2022-09-27T06:10:19;98797.00;;;10.80
11849;BMP180;5983;49.966;8.052;2022-09-27T06:12:46;98804.00;;;10.90
11849;BMP180;5983;49.966;8.052;2022-09-27T06:15:12;98805.00;;;10.90
11849;BMP180;5983;49.966;8.052;2022-09-27T06:17:40;98805.00;;;11.00
11849;BMP180;5983;49.966;8.052;2022-09-27T06:20:08;98810.00;;;11.00
11849;BMP180;5983;49.966;8.052;2022-09-27T06:22:35;98821.00;;;11.00
11849;BMP180;5983;49.966;8.052;2022-09-27T06:25:04;98832.00;;;11.00
11849;BMP180;5983;49.966;8.052;2022-09-27T06:27:33;98834.00;;;11.00
11849;BMP180;5983;49.966;8.052;2022-09-27T06:30:00;98842.00;;;10.90
11849;BMP180;5983;49.966;8.052;2022-09-27T06:32:27;98840.00;;;10.90
11849;BMP180;5983;49.966;8.052;2022-09-27T06:34:54;98844.00;;;10.90
11849;BMP180;5983;49.966;8.052;2022-09-27T06:37:24;98851.00;;;10.90
11849;BMP180;5983;49.966;8.052;2022-09-27T06:39:51;98856.00;;;10.90
11849;BMP180;5983;49.966;8.052;2022-09-27T06:42:18;98845.00;;;10.90
11849;BMP180;5983;49.966;8.052;2022-09-27T06:44:46;98856.00;;;10.90
11849;BMP180;5983;49.966;8.052;2022-09-27T06:47:15;98848.00;;;10.90
11849;BMP180;5983;49.966;8.052;2022-09-27T06:49:41;98856.00;;;10.90
11849;BMP180;5983;49.966;8.052;2022-09-27T06:52:09;98854.00;;;10.90
11849;BMP180;5983;49.966;8.052;2022-09-27T06:54:36;98867.00;;;11.00
11849;BMP180;5983;49.966;8.052;2022-09-27T06:57:03;98861.00;;;11.00
11849;BMP180;5983;49.966;8.052;2022-09-27T06:59:30;98869.00;;;11.10
11849;BMP180;5983;49.966;8.052;2022-09-27T07:02:15;98866.00;;;11.10
11849;BMP180;5983;49.966;8.052;2022-09-27T07:04:43;98874.00;;;11.20
11849;BMP180;5983;49.966;8.052;2022-09-27T07:07:10;98875.00;;;11.20
11849;BMP180;5983;49.966;8.052;2022-09-27T07:09:37;98884.00;;;11.20
11849;BMP180;5983;49.966;8.052;2022-09-27T07:12:05;98894.00;;;11.20
11849;BMP180;5983;49.966;8.052;2022-09-27T07:14:32;98879.00;;;11.30
11849;BMP180;5983;49.966;8.052;2022-09-27T07:16:59;98897.00;;;11.30
11849;BMP180;5983;49.966;8.052;2022-09-27T07:19:27;98899.00;;;11.30
11849;BMP180;5983;49.966;8.052;2022-09-27T07:21:54;98899.00;;;11.40
11849;BMP180;5983;49.966;8.052;2022-09-27T07:24:21;98904.00;;;11.40
11849;BMP180;5983;49.966;8.052;2022-09-27T07:26:48;98903.00;;;11.50
11849;BMP180;5983;49.966;8.052;2022-09-27T07:29:15;98912.00;;;11.50
11849;BMP180;5983;49.966;8.052;2022-09-27T07:31:42;98912.00;;;11.60
11849;BMP180;5983;49.966;8.052;2022-09-27T07:34:09;98898.00;;;11.60
11849;BMP180;5983;49.966;8.052;2022-09-27T07:36:38;98899.00;;;11.70
11849;BMP180;5983;49.966;8.052;2022-09-27T07:39:05;98907.00;;;11.80
11849;BMP180;5983;49.966;8.052;2022-09-27T07:41:32;98915.00;;;11.90
11849;BMP180;5983;49.966;8.052;2022-09-27T07:43:59;98923.00;;;12.10
11849;BMP180;5983;49.966;8.052;2022-09-27T07:46:28;98915.00;;;12.70
11849;BMP180;5983;49.966;8.052;2022-09-27T07:48:55;98925.00;;;13.90
11849;BMP180;5983;49.966;8.052;2022-09-27T07:51:23;98931.00;;;16.50
11849;BMP180;5983;49.966;8.052;2022-09-27T07:53:51;98922.00;;;18.40
11849;BMP180;5983;49.966;8.052;2022-09-27T07:56:18;98931.00;;;18.50
11849;BMP180;5983;49.966;8.052;2022-09-27T07:58:45;98925.00;;;17.80
11849;BMP180;5983;49.966;8.052;2022-09-27T08:01:13;98931.00;;;17.30
11849;BMP180;5983;49.966;8.052;2022-09-27T08:03:39;98932.00;;;16.60
11849;BMP180;5983;49.966;8.052;2022-09-27T08:06:07;98933.00;;;16.00
11849;BMP180;5983;49.966;8.052;2022-09-27T08:08:34;98941.00;;;15.50
11849;BMP180;5983;49.966;8.052;2022-09-27T08:11:10;98928.00;;;15.20
11849;BMP180;5983;49.966;8.052;2022-09-27T08:13:39;98939.00;;;16.20
11849;BMP180;5983;49.966;8.052;2022-09-27T08:16:06;98950.00;;;18.70
11849;BMP180;5983;49.966;8.052;2022-09-27T08:18:33;98944.00;;;21.10
11849;BMP180;5983;49.966;8.052;2022-09-27T08:21:00;98950.00;;;22.50
11849;BMP180;5983;49.966;8.052;2022-09-27T08:23:27;98951.00;;;23.20
11849;BMP180;5983;49.966;8.052;2022-09-27T08:25:55;98957.00;;;22.60
11849;BMP180;5983;49.966;8.052;2022-09-27T08:28:26;98957.00;;;21.00
11849;BMP180;5983;49.966;8.052;2022-09-27T08:30:53;98967.00;;;19.70
11849;BMP180;5983;49.966;8.052;2022-09-27T08:33:20;98970.00;;;18.70
11849;BMP180;5983;49.966;8.052;2022-09-27T08:35:46;98964.00;;;17.90
11849;BMP180;5983;49.966;8.052;2022-09-27T08:38:13;98970.00;;;17.10
11849;BMP180;5983;49.966;8.052;2022-09-27T08:40:50;98969.00;;;16.50
11849;BMP180;5983;49.966;8.052;2022-09-27T08:43:31;98968.00;;;16.00
11849;BMP180;5983;49.966;8.052;2022-09-27T08:46:23;98970.00;;;15.60
11849;BMP180;5983;49.966;8.052;2022-09-27T08:49:04;98968.00;;;15.30
11849;BMP180;5983;49.966;8.052;2022-09-27T08:51:34;98973.00;;;15.10
11849;BMP180;5983;49.966;8.052;2022-09-27T08:54:07;98968.00;;;14.90
11849;BMP180;5983;49.966;8.052;2022-09-27T08:56:37;98973.00;;;14.80
11849;BMP180;5983;49.966;8.052;2022-09-27T08:59:12;98971.00;;;14.70
11849;BMP180;5983;49.966;8.052;2022-09-27T09:01:40;98972.00;;;14.70
11849;BMP180;5983;49.966;8.052;2022-09-27T09:04:10;98966.00;;;14.70
11849;BMP180;5983;49.966;8.052;2022-09-27T09:06:47;98969.00;;;14.50
11849;BMP180;5983;49.966;8.052;2022-09-27T09:09:32;98964.00;;;14.40
11849;BMP180;5983;49.966;8.052;2022-09-27T09:12:18;98968.00;;;14.30
11849;BMP180;5983;49.966;8.052;2022-09-27T09:15:21;98969.00;;;14.20
11849;BMP180;5983;49.966;8.052;2022-09-27T09:18:24;98971.00;;;14.10
11849;BMP180;5983;49.966;8.052;2022-09-27T09:20:58;98976.00;;;14.00
11849;BMP180;5983;49.966;8.052;2022-09-27T09:23:56;98965.00;;;14.10
11849;BMP180;5983;49.966;8.052;2022-09-27T09:26:34;98970.00;;;14.30
11849;BMP180;5983;49.966;8.052;2022-09-27T09:29:17;98975.00;;;14.70
11849;BMP180;5983;49.966;8.052;2022-09-27T09:31:57;98975.00;;;15.40
11849;BMP180;5983;49.966;8.052;2022-09-27T09:34:33;98974.00;;;15.60
11849;BMP180;5983;49.966;8.052;2022-09-27T09:37:10;98980.00;;;15.70
11849;BMP180;5983;49.966;8.052;2022-09-27T09:39:45;98970.00;;;15.50
11849;BMP180;5983;49.966;8.052;2022-09-27T09:42:18;98971.00;;;15.30
11849;BMP180;5983;49.966;8.052;2022-09-27T09:44:55;98978.00;;;15.30
11849;BMP180;5983;49.966;8.052;2022-09-27T09:47:35;98974.00;;;15.20
11849;BMP180;5983;49.966;8.052;2022-09-27T09:50:13;98967.00;;;15.10
11849;BMP180;5983;49.966;8.052;2022-09-27T09:52:48;98971.00;;;15.20
11849;BMP180;5983;49.966;8.052;2022-09-27T09:55:20;98967.00;;;15.30
11849;BMP180;5983;49.966;8.052;2022-09-27T09:58:05;98971.00;;;15.30
11849;BMP180;5983;49.966;8.052;2022-09-27T10:00:40;98969.00;;;15.20
11849;BMP180;5983;49.966;8.052;2022-09-27T10:03:09;98968.00;;;15.20
11849;BMP180;5983;49.966;8.052;2022-09-27T10:05:36;98965.00;;;15.20
11849;BMP180;5983;49.966;8.052;2022-09-27T10:08:06;98970.00;;;15.60
11849;BMP180;5983;49.966;8.052;2022-09-27T10:10:36;98971.00;;;16.30
11849;BMP180;5983;49.966;8.052;2022-09-27T10:13:03;98978.00;;;16.80
11849;BMP180;5983;49.966;8.052;2022-09-27T10:15:30;98969.00;;;17.20
11849;BMP180;5983;49.966;8.052;2022-09-27T10:17:59;98967.00;;;17.70
11849;BMP180;5983;49.966;8.052;2022-09-27T10:20:36;98968.00;;;18.20
11849;BMP180;5983;49.966;8.052;2022-09-27T10:23:12;98966.00;;;18.00
11849;BMP180;5983;49.966;8.052;2022-09-27T10:25:49;98973.00;;;17.60
11849;BMP180;5983;49.966;8.052;2022-09-27T10:28:33;98967.00;;;17.10
11849;BMP180;5983;49.966;8.052;2022-09-27T10:31:05;98968.00;;;16.80
11849;BMP180;5983;49.966;8.052;2022-09-27T10:33:34;98968.00;;;16.50
11849;BMP180;5983;49.966;8.052;2022-09-27T10:36:22;98957.00;;;16.30
11849;BMP180;5983;49.966;8.052;2022-09-27T10:38:52;98953.00;;;16.10
11849;BMP180;5983;49.966;8.052;2022-09-27T10:41:25;98964.00;;;16.10
11849;BMP180;5983;49.966;8.052;2022-09-27T10:43:57;98957.00;;;16.10
11849;BMP180;5983;49.966;8.052;2022-09-27T10:46:27;98961.00;;;16.10
11849;BMP180;5983;49.966;8.052;2022-09-27T10:49:09;98958.00;;;16.10
11849;BMP180;5983;49.966;8.052;2022-09-27T10:51:40;98952.00;;;16.10
11849;BMP180;5983;49.966;8.052;2022-09-27T10:54:19;98953.00;;;16.00
11849;BMP180;5983;49.966;8.052;2022-09-27T10:56:55;98952.00;;;15.90
11849;BMP180;5983;49.966;8.052;2022-09-27T10:59:24;98951.00;;;16.00
11849;BMP180;5983;49.966;8.052;2022-09-27T11:01:56;98940.00;;;16.10
11849;BMP180;5983;49.966;8.052;2022-09-27T11:04:28;98943.00;;;16.30
11849;BMP180;5983;49.966;8.052;2022-09-27T11:07:13;98935.00;;;16.60
11849;BMP180;5983;49.966;8.052;2022-09-27T11:09:49;98943.00;;;16.70
11849;BMP180;5983;49.966;8.052;2022-09-27T11:12:17;98937.00;;;16.80
11849;BMP180;5983;49.966;8.052;2022-09-27T11:14:59;98936.00;;;16.90
11849;BMP180;5983;49.966;8.052;2022-09-27T11:17:38;98944.00;;;17.00
11849;BMP180;5983;49.966;8.052;2022-09-27T11:20:24;98934.00;;;17.10
11849;BMP180;5983;49.966;8.052;2022-09-27T11:23:31;98935.00;;;17.20
11849;BMP180;5983;49.966;8.052;2022-09-27T11:26:30;98939.00;;;17.30
11849;BMP180;5983;49.966;8.052;2022-09-27T11:29:19;98930.00;;;17.10
11849;BMP180;5983;49.966;8.052;2022-09-27T11:32:08;98933.00;;;16.90
11849;BMP180;5983;49.966;8.052;2022-09-27T11:35:10;98924.00;;;16.70
11849;BMP180;5983;49.966;8.052;2022-09-27T11:37:52;98924.00;;;16.50
11849;BMP180;5983;49.966;8.052;2022-09-27T11:40:34;98928.00;;;16.50
11849;BMP180;5983;49.966;8.052;2022-09-27T11:43:24;98917.00;;;16.30
11849;BMP180;5983;49.966;8.052;2022-09-27T11:46:01;98928.00;;;16.30
11849;BMP180;5983;49.966;8.052;2022-09-27T11:49:00;98919.00;;;16.20
11849;BMP180;5983;49.966;8.052;2022-09-27T11:51:52;98913.00;;;16.10
11849;BMP180;5983;49.966;8.052;2022-09-27T11:54:53;98909.00;;;16.10
11849;BMP180;5983;49.966;8.052;2022-09-27T11:57:30;98903.00;;;16.30
11849;BMP180;5983;49.966;8.052;2022-09-27T12:00:17;98905.00;;;16.30
11849;BMP180;5983;49.966;8.052;2022-09-27T12:03:36;98914.00;;;16.10
11849;BMP180;5983;49.966;8.052;2022-09-27T12:06:12;98905.00;;;15.90
11849;BMP180;5983;49.966;8.052;2022-09-27T12:08:55;98906.00;;;15.80
11849;BMP180;5983;49.966;8.052;2022-09-27T12:11:28;98909.00;;;15.60
11849;BMP180;5983;49.966;8.052;2022-09-27T12:14:02;98905.00;;;15.40
11849;BMP180;5983;49.966;8.052;2022-09-27T12:16:31;98908.00;;;15.30
11849;BMP180;5983;49.966;8.052;2022-09-27T12:19:02;98905.00;;;15.30
11849;BMP180;5983;49.966;8.052;2022-09-27T12:21:31;98899.00;;;15.50
11849;BMP180;5983;49.966;8.052;2022-09-27T12:24:00;98906.00;;;15.80
11849;BMP180;5983;49.966;8.052;2022-09-27T12:26:34;98908.00;;;15.90
11849;BMP180;5983;49.966;8.052;2022-09-27T12:29:11;98911.00;;;15.90
11849;BMP180;5983;49.966;8.052;2022-09-27T12:31:44;98912.00;;;15.70
11849;BMP180;5983;49.966;8.052;2022-09-27T12:34:18;98912.00;;;15.50
11849;BMP180;5983;49.966;8.052;2022-09-27T12:36:55;98916.00;;;15.30
11849;BMP180;5983;49.966;8.052;2022-09-27T12:39:32;98913.00;;;15.00
11849;BMP180;5983;49.966;8.052;2022-09-27T12:42:12;98905.00;;;14.80
11849;BMP180;5983;49.966;8.052;2022-09-27T12:44:42;98913.00;;;14.40
11849;BMP180;5983;49.966;8.052;2022-09-27T12:47:29;98912.00;;;14.20
11849;BMP180;5983;49.966;8.052;2022-09-27T12:50:12;98910.00;;;13.90
11849;BMP180;5983;49.966;8.052;2022-09-27T12:52:44;98909.00;;;13.50
11849;BMP180;5983;49.966;8.052;2022-09-27T12:55:43;98914.00;;;13.40
11849;BMP180;5983;49.966;8.052;2022-09-27T12:58:55;98915.00;;;13.20
11849;BMP180;5983;49.966;8.052;2022-09-27T13:01:40;98914.00;;;13.20
11849;BMP180;5983;49.966;8.052;2022-09-27T13:04:45;98901.00;;;13.20
11849;BMP180;5983;49.966;8.052;2022-09-27T13:07:32;98896.00;;;13.30
11849;BMP180;5983;49.966;8.052;2022-09-27T13:10:30;98907.00;;;13.40
11849;BMP180;5983;49.966;8.052;2022-09-27T13:13:01;98904.00;;;13.60
11849;BMP180;5983;49.966;8.052;2022-09-27T13:15:33;98912.00;;;14.20
11849;BMP180;5983;49.966;8.052;2022-09-27T13:18:04;98893.00;;;14.90
11849;BMP180;5983;49.966;8.052;2022-09-27T13:20:44;98900.00;;;15.50
11849;BMP180;5983;49.966;8.052;2022-09-27T13:23:57;98895.00;;;16.30
11849;BMP180;5983;49.966;8.052;2022-09-27T13:26:48;98899.00;;;16.90
11849;BMP180;5983;49.966;8.052;2022-09-27T13:29:34;98893.00;;;17.30
11849;BMP180;5983;49.966;8.052;2022-09-27T13:32:16;98884.00;;;17.50
11849;BMP180;5983;49.966;8.052;2022-09-27T13:34:47;98888.00;;;17.40
11849;BMP180;5983;49.966;8.052;2022-09-27T13:37:35;98882.00;;;17.30
11849;BMP180;5983;49.966;8.052;2022-09-27T13:40:29;98884.00;;;17.00
11849;BMP180;5983;49.966;8.052;2022-09-27T13:43:45;98884.00;;;16.60
11849;BMP180;5983;49.966;8.052;2022-09-27T13:46:19;98880.00;;;16.30
11849;BMP180;5983;49.966;8.052;2022-09-27T13:48:56;98887.00;;;16.20
11849;BMP180;5983;49.966;8.052;2022-09-27T13:51:35;98882.00;;;15.90
11849;BMP180;5983;49.966;8.052;2022-09-27T13:54:37;98886.00;;;15.70
11849;BMP180;5983;49.966;8.052;2022-09-27T13:57:47;98886.00;;;15.50
11849;BMP180;5983;49.966;8.052;2022-09-27T14:00:19;98886.00;;;15.30
11849;BMP180;5983;49.966;8.052;2022-09-27T14:02:59;98883.00;;;15.20
11849;BMP180;5983;49.966;8.052;2022-09-27T14:05:33;98887.00;;;15.00
11849;BMP180;5983;49.966;8.052;2022-09-27T14:08:15;98883.00;;;14.80
11849;BMP180;5983;49.966;8.052;2022-09-27T14:10:50;98886.00;;;14.60
11849;BMP180;5983;49.966;8.052;2022-09-27T14:13:19;98886.00;;;14.40
11849;BMP180;5983;49.966;8.052;2022-09-27T14:15:48;98881.00;;;14.20
11849;BMP180;5983;49.966;8.052;2022-09-27T14:18:16;98882.00;;;13.90
11849;BMP180;5983;49.966;8.052;2022-09-27T14:20:45;98883.00;;;13.70
11849;BMP180;5983;49.966;8.052;2022-09-27T14:23:23;98881.00;;;13.60
11849;BMP180;5983;49.966;8.052;2022-09-27T14:25:53;98872.00;;;13.50
11849;BMP180;5983;49.966;8.052;2022-09-27T14:28:24;98874.00;;;13.30
11849;BMP180;5983;49.966;8.052;2022-09-27T14:31:12;98877.00;;;13.20
11849;BMP180;5983;49.966;8.052;2022-09-27T14:33:44;98866.00;;;13.20
11849;BMP180;5983;49.966;8.052;2022-09-27T14:36:28;98876.00;;;13.20
11849;BMP180;5983;49.966;8.052;2022-09-27T14:39:22;98878.00;;;13.20
11849;BMP180;5983;49.966;8.052;2022-09-27T14:41:49;98876.00;;;13.20
11849;BMP180;5983;49.966;8.052;2022-09-27T14:44:18;98878.00;;;13.20
11849;BMP180;5983;49.966;8.052;2022-09-27T14:46:47;98872.00;;;13.30
11849;BMP180;5983;49.966;8.052;2022-09-27T14:49:32;98875.00;;;13.20
11849;BMP180;5983;49.966;8.052;2022-09-27T14:51:59;98869.00;;;13.20
11849;BMP180;5983;49.966;8.052;2022-09-27T14:54:29;98885.00;;;13.20
11849;BMP180;5983;49.966;8.052;2022-09-27T14:57:06;98884.00;;;13.30
11849;BMP180;5983;49.966;8.052;2022-09-27T14:59:42;98883.00;;;13.30
11849;BMP180;5983;49.966;8.052;2022-09-27T15:02:22;98891.00;;;13.30
11849;BMP180;5983;49.966;8.052;2022-09-27T15:05:16;98892.00;;;13.20